sensor_id;sensor_type;location;lat;lon;timestamp;P1;durP1;ratioP1;P2;durP2;ratioP2
63690;SDS011;49837;57.280;27.070;2022-07-12T00:00:28;11.5;;;7.6;;
63690;SDS011;49837;57.280;27.070;2022-07-12T00:01:28;12.6;;;7.6;;
63690;SDS011;49837;57.280;27.070;2022-07-12T00:02:29;14.4;;;7.5;;
63690;SDS011;49837;57.280;27.070;2022-07-12T00:03:29;11.8;;;7.6;;
63690;SDS011;49837;57.280;27.070;2022-07-12T00:04:29;13.1;;;7.4;;
63690;SDS011;49837;57.280;27.070;2022-07-12T00:05:30;11.2;;;7.1;;
63690;SDS011;49837;57.280;27.070;2022-07-12T00:06:30;9.6;;;7.1;;
63690;SDS011;49837;57.280;27.070;2022-07-12T00:07:31;10.7;;;7.6;;
63690;SDS011;49837;57.280;27.070;2022-07-12T00:08:31;12.4;;;7.3;;
63690;SDS011;49837;57.280;27.070;2022-07-12T00:09:32;12.9;;;7.5;;
63690;SDS011;49837;57.280;27.070;2022-07-12T00:10:32;11.8;;;7.5;;
63690;SDS011;49837;57.280;27.070;2022-07-12T00:11:33;11.5;;;6.8;;
63690;SDS011;49837;57.280;27.070;2022-07-12T00:12:33;13.5;;;7.6;;
63690;SDS011;49837;57.280;27.070;2022-07-12T00:13:33;15.5;;;7.2;;
63690;SDS011;49837;57.280;27.070;2022-07-12T00:14:35;13.5;;;7.7;;
63690;SDS011;49837;57.280;27.070;2022-07-12T00:15:35;13.7;;;7.4;;
63690;SDS011;49837;57.280;27.070;2022-07-12T00:16:35;10.5;;;7.1;;
63690;SDS011;49837;57.280;27.070;2022-07-12T00:17:36;10.7;;;7.4;;
63690;SDS011;49837;57.280;27.070;2022-07-12T00:18:36;12.0;;;7.3;;
63690;SDS011;49837;57.280;27.070;2022-07-12T00:19:37;11.8;;;7.1;;
63690;SDS011;49837;57.280;27.070;2022-07-12T00:20:37;10.6;;;6.5;;
63690;SDS011;49837;57.280;27.070;2022-07-12T00:21:38;10.7;;;6.8;;
63690;SDS011;49837;57.280;27.070;2022-07-12T00:22:38;9.9;;;7.1;;
63690;SDS011;49837;57.280;27.070;2022-07-12T00:23:39;9.9;;;7.0;;
63690;SDS011;49837;57.280;27.070;2022-07-12T00:24:39;12.3;;;7.1;;
63690;SDS011;49837;57.280;27.070;2022-07-12T00:25:40;10.2;;;7.1;;
63690;SDS011;49837;57.280;27.070;2022-07-12T00:26:41;11.2;;;6.5;;
63690;SDS011;49837;57.280;27.070;2022-07-12T00:27:41;9.8;;;6.2;;
63690;SDS011;49837;57.280;27.070;2022-07-12T00:28:41;10.3;;;6.7;;
63690;SDS011;49837;57.280;27.070;2022-07-12T00:29:42;11.1;;;6.3;;
63690;SDS011;49837;57.280;27.070;2022-07-12T00:30:42;9.4;;;6.7;;
63690;SDS011;49837;57.280;27.070;2022-07-12T00:31:43;8.3;;;5.7;;
63690;SDS011;49837;57.280;27.070;2022-07-12T00:32:43;9.5;;;6.0;;
63690;SDS011;49837;57.280;27.070;2022-07-12T00:33:44;9.3;;;5.7;;
63690;SDS011;49837;57.280;27.070;2022-07-12T00:34:44;7.6;;;5.8;;
63690;SDS011;49837;57.280;27.070;2022-07-12T00:35:45;8.0;;;5.9;;
63690;SDS011;49837;57.280;27.070;2022-07-12T00:36:45;9.6;;;5.9;;
63690;SDS011;49837;57.280;27.070;2022-07-12T00:37:46;7.4;;;5.5;;
63690;SDS011;49837;57.280;27.070;2022-07-12T00:38:46;10.2;;;5.6;;
63690;SDS011;49837;57.280;27.070;2022-07-12T00:39:46;7.2;;;5.5;;
63690;SDS011;49837;57.280;27.070;2022-07-12T00:40:47;7.5;;;5.6;;
63690;SDS011;49837;57.280;27.070;2022-07-12T00:41:48;9.1;;;5.7;;
63690;SDS011;49837;57.280;27.070;2022-07-12T00:42:48;8.3;;;5.7;;
63690;SDS011;49837;57.280;27.070;2022-07-12T00:43:48;7.8;;;5.4;;
63690;SDS011;49837;57.280;27.070;2022-07-12T00:44:49;8.1;;;5.4;;
63690;SDS011;49837;57.280;27.070;2022-07-12T00:45:49;10.3;;;5.7;;
63690;SDS011;49837;57.280;27.070;2022-07-12T00:46:50;7.4;;;4.9;;
63690;SDS011;49837;57.280;27.070;2022-07-12T00:47:50;8.3;;;5.6;;
63690;SDS011;49837;57.280;27.070;2022-07-12T00:48:50;7.7;;;5.1;;
63690;SDS011;49837;57.280;27.070;2022-07-12T00:49:51;7.9;;;5.6;;
63690;SDS011;49837;57.280;27.070;2022-07-12T00:50:51;6.5;;;5.2;;
63690;SDS011;49837;57.280;27.070;2022-07-12T00:51:52;7.7;;;4.9;;
63690;SDS011;49837;57.280;27.070;2022-07-12T00:52:53;9.3;;;5.3;;
63690;SDS011;49837;57.280;27.070;2022-07-12T00:53:53;9.0;;;5.1;;
63690;SDS011;49837;57.280;27.070;2022-07-12T00:54:54;6.3;;;4.4;;
63690;SDS011;49837;57.280;27.070;2022-07-12T00:55:57;6.8;;;4.9;;
63690;SDS011;49837;57.280;27.070;2022-07-12T00:56:55;7.4;;;4.7;;
63690;SDS011;49837;57.280;27.070;2022-07-12T00:57:56;6.5;;;4.8;;
63690;SDS011;49837;57.280;27.070;2022-07-12T00:58:56;5.2;;;4.2;;
63690;SDS011;49837;57.280;27.070;2022-07-12T00:59:57;5.5;;;4.4;;
63690;SDS011;49837;57.280;27.070;2022-07-12T01:00:57;7.2;;;4.4;;
63690;SDS011;49837;57.280;27.070;2022-07-12T01:01:58;6.3;;;4.2;;
63690;SDS011;49837;57.280;27.070;2022-07-12T01:03:00;6.4;;;4.0;;
63690;SDS011;49837;57.280;27.070;2022-07-12T01:03:58;5.1;;;4.2;;
63690;SDS011;49837;57.280;27.070;2022-07-12T01:04:59;6.0;;;4.2;;
63690;SDS011;49837;57.280;27.070;2022-07-12T01:05:59;7.2;;;4.2;;
63690;SDS011;49837;57.280;27.070;2022-07-12T01:07:00;6.0;;;4.5;;
63690;SDS011;49837;57.280;27.070;2022-07-12T01:08:00;6.2;;;3.7;;
63690;SDS011;49837;57.280;27.070;2022-07-12T01:09:01;6.2;;;3.8;;
63690;SDS011;49837;57.280;27.070;2022-07-12T01:10:03;6.0;;;3.6;;
63690;SDS011;49837;57.280;27.070;2022-07-12T01:11:02;4.4;;;3.6;;
63690;SDS011;49837;57.280;27.070;2022-07-12T01:12:03;4.5;;;3.5;;
63690;SDS011;49837;57.280;27.070;2022-07-12T01:13:03;4.0;;;3.2;;
63690;SDS011;49837;57.280;27.070;2022-07-12T01:14:03;5.9;;;3.2;;
63690;SDS011;49837;57.280;27.070;2022-07-12T01:15:05;4.8;;;3.1;;
63690;SDS011;49837;57.280;27.070;2022-07-12T01:16:05;5.6;;;3.2;;
63690;SDS011;49837;57.280;27.070;2022-07-12T01:17:05;4.3;;;3.1;;
63690;SDS011;49837;57.280;27.070;2022-07-12T01:18:05;4.7;;;3.0;;
63690;SDS011;49837;57.280;27.070;2022-07-12T01:19:06;5.2;;;3.4;;
63690;SDS011;49837;57.280;27.070;2022-07-12T01:20:06;4.0;;;2.9;;
63690;SDS011;49837;57.280;27.070;2022-07-12T01:21:07;3.6;;;2.9;;
63690;SDS011;49837;57.280;27.070;2022-07-12T01:22:08;5.0;;;3.2;;
63690;SDS011;49837;57.280;27.070;2022-07-12T01:23:08;4.1;;;2.8;;
63690;SDS011;49837;57.280;27.070;2022-07-12T01:24:08;4.7;;;3.0;;
63690;SDS011;49837;57.280;27.070;2022-07-12T01:25:08;3.2;;;2.6;;
63690;SDS011;49837;57.280;27.070;2022-07-12T01:26:09;4.0;;;2.7;;
63690;SDS011;49837;57.280;27.070;2022-07-12T01:27:10;3.4;;;2.9;;
63690;SDS011;49837;57.280;27.070;2022-07-12T01:28:10;4.1;;;2.8;;
63690;SDS011;49837;57.280;27.070;2022-07-12T01:29:10;3.9;;;3.0;;
63690;SDS011;49837;57.280;27.070;2022-07-12T01:30:11;3.6;;;2.6;;
63690;SDS011;49837;57.280;27.070;2022-07-12T01:31:11;3.5;;;2.8;;
63690;SDS011;49837;57.280;27.070;2022-07-12T01:32:12;3.7;;;2.8;;
63690;SDS011;49837;57.280;27.070;2022-07-12T01:33:12;4.4;;;2.7;;
63690;SDS011;49837;57.280;27.070;2022-07-12T01:34:13;4.5;;;3.0;;
63690;SDS011;49837;57.280;27.070;2022-07-12T01:35:13;5.4;;;2.9;;
63690;SDS011;49837;57.280;27.070;2022-07-12T01:36:14;3.9;;;3.1;;
63690;SDS011;49837;57.280;27.070;2022-07-12T01:37:14;3.0;;;2.6;;
63690;SDS011;49837;57.280;27.070;2022-07-12T01:38:15;4.4;;;3.2;;
63690;SDS011;49837;57.280;27.070;2022-07-12T01:39:15;4.7;;;2.9;;
63690;SDS011;49837;57.280;27.070;2022-07-12T01:40:15;3.2;;;2.8;;
63690;SDS011;49837;57.280;27.070;2022-07-12T01:41:16;4.3;;;3.1;;
63690;SDS011;49837;57.280;27.070;2022-07-12T01:42:16;4.4;;;3.0;;
63690;SDS011;49837;57.280;27.070;2022-07-12T01:43:17;4.3;;;2.8;;
63690;SDS011;49837;57.280;27.070;2022-07-12T01:44:17;3.9;;;2.8;;
63690;SDS011;49837;57.280;27.070;2022-07-12T01:45:18;4.0;;;2.9;;
63690;SDS011;49837;57.280;27.070;2022-07-12T01:46:18;4.3;;;3.1;;
63690;SDS011;49837;57.280;27.070;2022-07-12T01:47:19;5.3;;;3.3;;
63690;SDS011;49837;57.280;27.070;2022-07-12T01:48:19;4.8;;;3.7;;
63690;SDS011;49837;57.280;27.070;2022-07-12T01:49:19;4.3;;;3.2;;
63690;SDS011;49837;57.280;27.070;2022-07-12T01:50:20;5.0;;;3.4;;
63690;SDS011;49837;57.280;27.070;2022-07-12T01:51:20;5.0;;;3.6;;
63690;SDS011;49837;57.280;27.070;2022-07-12T01:52:21;4.7;;;3.4;;
63690;SDS011;49837;57.280;27.070;2022-07-12T01:53:21;7.8;;;3.5;;
63690;SDS011;49837;57.280;27.070;2022-07-12T01:54:23;5.7;;;3.9;;
63690;SDS011;49837;57.280;27.070;2022-07-12T01:55:23;5.0;;;3.9;;
63690;SDS011;49837;57.280;27.070;2022-07-12T01:56:24;5.2;;;3.9;;
63690;SDS011;49837;57.280;27.070;2022-07-12T01:57:24;5.5;;;3.5;;
63690;SDS011;49837;57.280;27.070;2022-07-12T01:58:25;4.6;;;3.6;;
63690;SDS011;49837;57.280;27.070;2022-07-12T01:59:25;5.8;;;4.1;;
63690;SDS011;49837;57.280;27.070;2022-07-12T02:00:26;5.8;;;4.4;;
63690;SDS011;49837;57.280;27.070;2022-07-12T02:01:26;6.0;;;4.5;;
63690;SDS011;49837;57.280;27.070;2022-07-12T02:02:26;6.0;;;4.3;;
63690;SDS011;49837;57.280;27.070;2022-07-12T02:03:27;5.0;;;3.8;;
63690;SDS011;49837;57.280;27.070;2022-07-12T02:04:27;7.0;;;4.2;;
63690;SDS011;49837;57.280;27.070;2022-07-12T02:05:28;5.9;;;4.3;;
63690;SDS011;49837;57.280;27.070;2022-07-12T02:06:28;6.6;;;4.6;;
63690;SDS011;49837;57.280;27.070;2022-07-12T02:07:29;5.2;;;4.2;;
63690;SDS011;49837;57.280;27.070;2022-07-12T02:08:29;6.1;;;4.8;;
63690;SDS011;49837;57.280;27.070;2022-07-12T02:09:30;7.4;;;4.7;;
63690;SDS011;49837;57.280;27.070;2022-07-12T02:10:30;5.7;;;4.3;;
63690;SDS011;49837;57.280;27.070;2022-07-12T02:11:31;7.4;;;4.8;;
63690;SDS011;49837;57.280;27.070;2022-07-12T02:12:31;7.1;;;4.6;;
63690;SDS011;49837;57.280;27.070;2022-07-12T02:13:31;7.2;;;4.7;;
63690;SDS011;49837;57.280;27.070;2022-07-12T02:14:32;6.6;;;4.8;;
63690;SDS011;49837;57.280;27.070;2022-07-12T02:15:32;6.9;;;4.7;;
63690;SDS011;49837;57.280;27.070;2022-07-12T02:16:33;8.4;;;5.0;;
63690;SDS011;49837;57.280;27.070;2022-07-12T02:17:33;7.1;;;4.8;;
63690;SDS011;49837;57.280;27.070;2022-07-12T02:18:34;6.5;;;4.7;;
63690;SDS011;49837;57.280;27.070;2022-07-12T02:19:35;7.5;;;5.1;;
63690;SDS011;49837;57.280;27.070;2022-07-12T02:20:35;6.1;;;4.9;;
63690;SDS011;49837;57.280;27.070;2022-07-12T02:21:36;9.6;;;5.1;;
63690;SDS011;49837;57.280;27.070;2022-07-12T02:22:36;7.5;;;5.0;;
63690;SDS011;49837;57.280;27.070;2022-07-12T02:23:36;7.1;;;4.8;;
63690;SDS011;49837;57.280;27.070;2022-07-12T02:24:37;8.4;;;4.9;;
63690;SDS011;49837;57.280;27.070;2022-07-12T02:25:37;7.7;;;5.0;;
63690;SDS011;49837;57.280;27.070;2022-07-12T02:26:38;6.7;;;5.1;;
63690;SDS011;49837;57.280;27.070;2022-07-12T02:27:38;7.6;;;5.0;;
63690;SDS011;49837;57.280;27.070;2022-07-12T02:28:39;7.2;;;5.0;;
63690;SDS011;49837;57.280;27.070;2022-07-12T02:29:39;8.8;;;5.0;;
63690;SDS011;49837;57.280;27.070;2022-07-12T02:30:40;8.3;;;5.2;;
63690;SDS011;49837;57.280;27.070;2022-07-12T02:31:40;8.8;;;6.1;;
63690;SDS011;49837;57.280;27.070;2022-07-12T02:32:41;10.0;;;5.8;;
63690;SDS011;49837;57.280;27.070;2022-07-12T02:33:41;9.8;;;6.0;;
63690;SDS011;49837;57.280;27.070;2022-07-12T02:34:41;9.0;;;5.7;;
63690;SDS011;49837;57.280;27.070;2022-07-12T02:35:42;9.4;;;5.3;;
63690;SDS011;49837;57.280;27.070;2022-07-12T02:36:43;9.5;;;5.9;;
63690;SDS011;49837;57.280;27.070;2022-07-12T02:37:43;11.0;;;5.8;;
63690;SDS011;49837;57.280;27.070;2022-07-12T02:38:43;11.2;;;6.8;;
63690;SDS011;49837;57.280;27.070;2022-07-12T02:39:44;9.5;;;5.7;;
63690;SDS011;49837;57.280;27.070;2022-07-12T02:40:44;9.1;;;5.3;;
63690;SDS011;49837;57.280;27.070;2022-07-12T02:41:45;7.0;;;5.3;;
63690;SDS011;49837;57.280;27.070;2022-07-12T02:42:45;8.2;;;5.5;;
63690;SDS011;49837;57.280;27.070;2022-07-12T02:43:46;8.4;;;6.0;;
63690;SDS011;49837;57.280;27.070;2022-07-12T02:44:46;6.9;;;5.0;;
63690;SDS011;49837;57.280;27.070;2022-07-12T02:45:47;7.9;;;5.4;;
63690;SDS011;49837;57.280;27.070;2022-07-12T02:46:47;8.5;;;5.7;;
63690;SDS011;49837;57.280;27.070;2022-07-12T02:47:47;7.0;;;5.3;;
63690;SDS011;49837;57.280;27.070;2022-07-12T02:48:48;7.6;;;5.6;;
63690;SDS011;49837;57.280;27.070;2022-07-12T02:49:48;8.0;;;6.0;;
63690;SDS011;49837;57.280;27.070;2022-07-12T02:50:49;8.7;;;5.5;;
63690;SDS011;49837;57.280;27.070;2022-07-12T02:51:50;9.2;;;5.8;;
63690;SDS011;49837;57.280;27.070;2022-07-12T02:52:50;9.1;;;5.8;;
63690;SDS011;49837;57.280;27.070;2022-07-12T02:53:51;8.4;;;5.5;;
63690;SDS011;49837;57.280;27.070;2022-07-12T02:54:51;9.8;;;5.9;;
63690;SDS011;49837;57.280;27.070;2022-07-12T02:55:52;9.0;;;5.8;;
63690;SDS011;49837;57.280;27.070;2022-07-12T02:56:52;8.7;;;5.5;;
63690;SDS011;49837;57.280;27.070;2022-07-12T02:57:53;8.7;;;5.7;;
63690;SDS011;49837;57.280;27.070;2022-07-12T02:58:53;7.8;;;5.6;;
63690;SDS011;49837;57.280;27.070;2022-07-12T02:59:53;10.5;;;6.0;;
63690;SDS011;49837;57.280;27.070;2022-07-12T03:00:54;9.8;;;5.6;;
63690;SDS011;49837;57.280;27.070;2022-07-12T03:01:54;8.8;;;5.7;;
63690;SDS011;49837;57.280;27.070;2022-07-12T03:02:55;7.0;;;5.5;;
63690;SDS011;49837;57.280;27.070;2022-07-12T03:03:55;8.2;;;5.7;;
63690;SDS011;49837;57.280;27.070;2022-07-12T03:04:56;8.9;;;5.6;;
63690;SDS011;49837;57.280;27.070;2022-07-12T03:05:56;9.4;;;5.6;;
63690;SDS011;49837;57.280;27.070;2022-07-12T03:06:57;7.7;;;5.3;;
63690;SDS011;49837;57.280;27.070;2022-07-12T03:07:58;10.7;;;5.8;;
63690;SDS011;49837;57.280;27.070;2022-07-12T03:08:58;8.0;;;6.0;;
63690;SDS011;49837;57.280;27.070;2022-07-12T03:09:59;8.2;;;5.3;;
63690;SDS011;49837;57.280;27.070;2022-07-12T03:11:00;8.6;;;5.6;;
63690;SDS011;49837;57.280;27.070;2022-07-12T03:12:00;7.3;;;5.4;;
63690;SDS011;49837;57.280;27.070;2022-07-12T03:13:01;7.9;;;5.6;;
63690;SDS011;49837;57.280;27.070;2022-07-12T03:14:01;10.4;;;5.5;;
63690;SDS011;49837;57.280;27.070;2022-07-12T03:15:02;8.9;;;6.3;;
63690;SDS011;49837;57.280;27.070;2022-07-12T03:16:02;7.9;;;5.7;;
63690;SDS011;49837;57.280;27.070;2022-07-12T03:17:02;9.9;;;5.8;;
63690;SDS011;49837;57.280;27.070;2022-07-12T03:18:03;10.0;;;5.9;;
63690;SDS011;49837;57.280;27.070;2022-07-12T03:19:03;9.4;;;6.1;;
63690;SDS011;49837;57.280;27.070;2022-07-12T03:20:04;9.3;;;6.2;;
63690;SDS011;49837;57.280;27.070;2022-07-12T03:21:04;9.6;;;6.0;;
63690;SDS011;49837;57.280;27.070;2022-07-12T03:22:05;8.8;;;5.9;;
63690;SDS011;49837;57.280;27.070;2022-07-12T03:23:05;7.9;;;5.5;;
63690;SDS011;49837;57.280;27.070;2022-07-12T03:24:05;7.2;;;5.4;;
63690;SDS011;49837;57.280;27.070;2022-07-12T03:25:06;8.8;;;6.0;;
63690;SDS011;49837;57.280;27.070;2022-07-12T03:26:07;12.5;;;6.2;;
63690;SDS011;49837;57.280;27.070;2022-07-12T03:27:07;9.9;;;6.3;;
63690;SDS011;49837;57.280;27.070;2022-07-12T03:28:07;7.6;;;5.7;;
63690;SDS011;49837;57.280;27.070;2022-07-12T03:29:08;8.2;;;6.2;;
63690;SDS011;49837;57.280;27.070;2022-07-12T03:30:09;10.4;;;6.3;;
63690;SDS011;49837;57.280;27.070;2022-07-12T03:31:09;9.3;;;6.1;;
63690;SDS011;49837;57.280;27.070;2022-07-12T03:32:10;7.4;;;5.7;;
63690;SDS011;49837;57.280;27.070;2022-07-12T03:33:10;8.4;;;5.8;;
63690;SDS011;49837;57.280;27.070;2022-07-12T03:34:11;10.1;;;6.1;;
63690;SDS011;49837;57.280;27.070;2022-07-12T03:35:11;10.3;;;6.4;;
63690;SDS011;49837;57.280;27.070;2022-07-12T03:36:12;8.6;;;5.9;;
63690;SDS011;49837;57.280;27.070;2022-07-12T03:37:12;9.9;;;6.1;;
63690;SDS011;49837;57.280;27.070;2022-07-12T03:38:12;10.9;;;6.1;;
63690;SDS011;49837;57.280;27.070;2022-07-12T03:39:13;8.9;;;6.2;;
63690;SDS011;49837;57.280;27.070;2022-07-12T03:40:14;9.3;;;5.8;;
63690;SDS011;49837;57.280;27.070;2022-07-12T03:41:14;8.1;;;5.5;;
63690;SDS011;49837;57.280;27.070;2022-07-12T03:42:14;8.3;;;5.5;;
63690;SDS011;49837;57.280;27.070;2022-07-12T03:43:15;8.7;;;5.5;;
63690;SDS011;49837;57.280;27.070;2022-07-12T03:44:15;7.6;;;4.9;;
63690;SDS011;49837;57.280;27.070;2022-07-12T03:45:16;7.1;;;5.2;;
63690;SDS011;49837;57.280;27.070;2022-07-12T03:46:16;7.8;;;5.8;;
63690;SDS011;49837;57.280;27.070;2022-07-12T03:47:17;8.3;;;5.6;;
63690;SDS011;49837;57.280;27.070;2022-07-12T03:48:17;7.5;;;5.2;;
63690;SDS011;49837;57.280;27.070;2022-07-12T03:49:18;8.0;;;5.4;;
63690;SDS011;49837;57.280;27.070;2022-07-12T03:50:18;6.8;;;5.1;;
63690;SDS011;49837;57.280;27.070;2022-07-12T03:51:18;9.0;;;5.0;;
63690;SDS011;49837;57.280;27.070;2022-07-12T03:52:19;7.2;;;5.1;;
63690;SDS011;49837;57.280;27.070;2022-07-12T03:53:20;8.6;;;5.4;;
63690;SDS011;49837;57.280;27.070;2022-07-12T03:54:20;8.3;;;5.5;;
63690;SDS011;49837;57.280;27.070;2022-07-12T03:55:21;8.7;;;5.3;;
63690;SDS011;49837;57.280;27.070;2022-07-12T03:56:21;8.3;;;5.1;;
63690;SDS011;49837;57.280;27.070;2022-07-12T03:57:22;7.5;;;5.2;;
63690;SDS011;49837;57.280;27.070;2022-07-12T03:58:22;7.5;;;5.1;;
63690;SDS011;49837;57.280;27.070;2022-07-12T03:59:23;6.8;;;5.1;;
63690;SDS011;49837;57.280;27.070;2022-07-12T04:00:23;8.2;;;4.8;;
63690;SDS011;49837;57.280;27.070;2022-07-12T04:01:24;6.9;;;4.9;;
63690;SDS011;49837;57.280;27.070;2022-07-12T04:02:24;8.1;;;5.2;;
63690;SDS011;49837;57.280;27.070;2022-07-12T04:03:25;7.7;;;5.0;;
63690;SDS011;49837;57.280;27.070;2022-07-12T04:04:25;7.7;;;5.2;;
63690;SDS011;49837;57.280;27.070;2022-07-12T04:05:25;8.6;;;5.3;;
63690;SDS011;49837;57.280;27.070;2022-07-12T04:06:26;8.0;;;4.6;;
63690;SDS011;49837;57.280;27.070;2022-07-12T04:07:26;8.1;;;5.2;;
63690;SDS011;49837;57.280;27.070;2022-07-12T04:08:27;7.1;;;4.9;;
63690;SDS011;49837;57.280;27.070;2022-07-12T04:09:27;7.8;;;5.2;;
63690;SDS011;49837;57.280;27.070;2022-07-12T04:10:28;7.9;;;5.0;;
63690;SDS011;49837;57.280;27.070;2022-07-12T04:11:28;9.2;;;5.3;;
63690;SDS011;49837;57.280;27.070;2022-07-12T04:12:29;7.8;;;5.0;;
63690;SDS011;49837;57.280;27.070;2022-07-12T04:13:29;8.0;;;5.2;;
63690;SDS011;49837;57.280;27.070;2022-07-12T04:14:30;7.2;;;5.1;;
63690;SDS011;49837;57.280;27.070;2022-07-12T04:15:30;6.8;;;4.9;;
63690;SDS011;49837;57.280;27.070;2022-07-12T04:16:30;6.6;;;5.1;;
63690;SDS011;49837;57.280;27.070;2022-07-12T04:17:31;6.8;;;5.0;;
63690;SDS011;49837;57.280;27.070;2022-07-12T04:18:31;9.4;;;5.6;;
63690;SDS011;49837;57.280;27.070;2022-07-12T04:19:32;6.8;;;4.9;;
63690;SDS011;49837;57.280;27.070;2022-07-12T04:20:32;8.8;;;5.9;;
63690;SDS011;49837;57.280;27.070;2022-07-12T04:21:33;6.9;;;4.8;;
63690;SDS011;49837;57.280;27.070;2022-07-12T04:22:33;10.5;;;5.7;;
63690;SDS011;49837;57.280;27.070;2022-07-12T04:23:34;7.9;;;5.6;;
63690;SDS011;49837;57.280;27.070;2022-07-12T04:24:34;8.1;;;5.4;;
63690;SDS011;49837;57.280;27.070;2022-07-12T04:25:35;7.3;;;5.3;;
63690;SDS011;49837;57.280;27.070;2022-07-12T04:26:35;12.3;;;5.6;;
63690;SDS011;49837;57.280;27.070;2022-07-12T04:27:35;8.1;;;5.7;;
63690;SDS011;49837;57.280;27.070;2022-07-12T04:28:36;8.6;;;5.5;;
63690;SDS011;49837;57.280;27.070;2022-07-12T04:29:36;8.1;;;5.6;;
63690;SDS011;49837;57.280;27.070;2022-07-12T04:30:37;8.2;;;5.6;;
63690;SDS011;49837;57.280;27.070;2022-07-12T04:31:37;9.6;;;5.9;;
63690;SDS011;49837;57.280;27.070;2022-07-12T04:32:38;8.1;;;5.9;;
63690;SDS011;49837;57.280;27.070;2022-07-12T04:33:38;9.1;;;5.9;;
63690;SDS011;49837;57.280;27.070;2022-07-12T04:34:39;9.0;;;6.0;;
63690;SDS011;49837;57.280;27.070;2022-07-12T04:35:39;9.4;;;5.9;;
63690;SDS011;49837;57.280;27.070;2022-07-12T04:36:40;10.6;;;6.0;;
63690;SDS011;49837;57.280;27.070;2022-07-12T04:37:40;10.3;;;5.9;;
63690;SDS011;49837;57.280;27.070;2022-07-12T04:38:41;9.9;;;6.2;;
63690;SDS011;49837;57.280;27.070;2022-07-12T04:39:41;9.9;;;5.6;;
63690;SDS011;49837;57.280;27.070;2022-07-12T04:40:41;7.4;;;5.7;;
63690;SDS011;49837;57.280;27.070;2022-07-12T04:41:42;9.2;;;6.1;;
63690;SDS011;49837;57.280;27.070;2022-07-12T04:42:42;10.2;;;5.6;;
63690;SDS011;49837;57.280;27.070;2022-07-12T04:43:43;8.9;;;5.8;;
63690;SDS011;49837;57.280;27.070;2022-07-12T04:44:43;10.6;;;6.0;;
63690;SDS011;49837;57.280;27.070;2022-07-12T04:45:44;13.8;;;6.8;;
63690;SDS011;49837;57.280;27.070;2022-07-12T04:46:44;9.2;;;6.0;;
63690;SDS011;49837;57.280;27.070;2022-07-12T04:47:45;11.4;;;6.2;;
63690;SDS011;49837;57.280;27.070;2022-07-12T04:48:45;7.9;;;5.9;;
63690;SDS011;49837;57.280;27.070;2022-07-12T04:49:46;9.1;;;5.9;;
63690;SDS011;49837;57.280;27.070;2022-07-12T04:50:46;7.4;;;5.7;;
63690;SDS011;49837;57.280;27.070;2022-07-12T04:51:47;10.1;;;6.0;;
63690;SDS011;49837;57.280;27.070;2022-07-12T04:52:47;8.2;;;5.9;;
63690;SDS011;49837;57.280;27.070;2022-07-12T04:53:48;8.4;;;5.9;;
63690;SDS011;49837;57.280;27.070;2022-07-12T04:54:48;8.6;;;6.0;;
63690;SDS011;49837;57.280;27.070;2022-07-12T04:55:48;11.1;;;6.4;;
63690;SDS011;49837;57.280;27.070;2022-07-12T04:56:49;8.8;;;6.0;;
63690;SDS011;49837;57.280;27.070;2022-07-12T04:57:49;10.2;;;5.9;;
63690;SDS011;49837;57.280;27.070;2022-07-12T04:58:50;9.2;;;6.0;;
63690;SDS011;49837;57.280;27.070;2022-07-12T04:59:50;9.3;;;6.3;;
63690;SDS011;49837;57.280;27.070;2022-07-12T05:00:51;9.0;;;6.5;;
63690;SDS011;49837;57.280;27.070;2022-07-12T05:01:51;8.7;;;5.8;;
63690;SDS011;49837;57.280;27.070;2022-07-12T05:02:52;8.6;;;6.0;;
63690;SDS011;49837;57.280;27.070;2022-07-12T05:03:52;9.0;;;5.9;;
63690;SDS011;49837;57.280;27.070;2022-07-12T05:04:53;11.9;;;6.2;;
63690;SDS011;49837;57.280;27.070;2022-07-12T05:05:54;9.7;;;6.2;;
63690;SDS011;49837;57.280;27.070;2022-07-12T05:06:54;8.7;;;6.3;;
63690;SDS011;49837;57.280;27.070;2022-07-12T05:07:54;8.4;;;6.2;;
63690;SDS011;49837;57.280;27.070;2022-07-12T05:08:55;9.8;;;6.3;;
63690;SDS011;49837;57.280;27.070;2022-07-12T05:09:55;10.5;;;6.6;;
63690;SDS011;49837;57.280;27.070;2022-07-12T05:10:56;10.3;;;6.6;;
63690;SDS011;49837;57.280;27.070;2022-07-12T05:11:56;9.7;;;6.4;;
63690;SDS011;49837;57.280;27.070;2022-07-12T05:12:56;12.6;;;6.6;;
63690;SDS011;49837;57.280;27.070;2022-07-12T05:13:57;9.4;;;6.5;;
63690;SDS011;49837;57.280;27.070;2022-07-12T05:14:57;11.4;;;6.4;;
63690;SDS011;49837;57.280;27.070;2022-07-12T05:15:58;8.5;;;6.5;;
63690;SDS011;49837;57.280;27.070;2022-07-12T05:16:58;11.3;;;6.4;;
63690;SDS011;49837;57.280;27.070;2022-07-12T05:17:59;11.0;;;6.8;;
63690;SDS011;49837;57.280;27.070;2022-07-12T05:18:59;13.0;;;7.7;;
63690;SDS011;49837;57.280;27.070;2022-07-12T05:20:00;10.0;;;6.8;;
63690;SDS011;49837;57.280;27.070;2022-07-12T05:21:00;10.7;;;7.0;;
63690;SDS011;49837;57.280;27.070;2022-07-12T05:22:01;11.9;;;7.0;;
63690;SDS011;49837;57.280;27.070;2022-07-12T05:23:01;11.6;;;7.0;;
63690;SDS011;49837;57.280;27.070;2022-07-12T05:24:02;10.6;;;7.0;;
63690;SDS011;49837;57.280;27.070;2022-07-12T05:25:02;13.0;;;7.5;;
63690;SDS011;49837;57.280;27.070;2022-07-12T05:26:03;13.0;;;7.5;;
63690;SDS011;49837;57.280;27.070;2022-07-12T05:27:03;9.5;;;6.9;;
63690;SDS011;49837;57.280;27.070;2022-07-12T05:28:04;9.5;;;6.8;;
63690;SDS011;49837;57.280;27.070;2022-07-12T05:29:04;10.8;;;7.2;;
63690;SDS011;49837;57.280;27.070;2022-07-12T05:30:05;17.8;;;7.3;;
63690;SDS011;49837;57.280;27.070;2022-07-12T05:31:05;11.1;;;7.0;;
63690;SDS011;49837;57.280;27.070;2022-07-12T05:32:06;13.1;;;6.9;;
63690;SDS011;49837;57.280;27.070;2022-07-12T05:33:06;10.5;;;7.0;;
63690;SDS011;49837;57.280;27.070;2022-07-12T05:34:07;9.9;;;6.7;;
63690;SDS011;49837;57.280;27.070;2022-07-12T05:35:07;9.5;;;6.7;;
63690;SDS011;49837;57.280;27.070;2022-07-12T05:36:08;9.5;;;6.8;;
63690;SDS011;49837;57.280;27.070;2022-07-12T05:37:08;8.9;;;6.8;;
63690;SDS011;49837;57.280;27.070;2022-07-12T05:38:09;11.9;;;7.4;;
63690;SDS011;49837;57.280;27.070;2022-07-12T05:39:09;10.3;;;6.9;;
63690;SDS011;49837;57.280;27.070;2022-07-12T05:40:10;10.1;;;7.8;;
63690;SDS011;49837;57.280;27.070;2022-07-12T05:41:10;12.1;;;7.2;;
63690;SDS011;49837;57.280;27.070;2022-07-12T05:42:11;10.2;;;7.7;;
63690;SDS011;49837;57.280;27.070;2022-07-12T05:43:11;9.9;;;7.2;;
63690;SDS011;49837;57.280;27.070;2022-07-12T05:44:12;16.3;;;7.2;;
63690;SDS011;49837;57.280;27.070;2022-07-12T05:45:12;11.5;;;7.4;;
63690;SDS011;49837;57.280;27.070;2022-07-12T05:46:12;14.1;;;7.3;;
63690;SDS011;49837;57.280;27.070;2022-07-12T05:47:13;11.4;;;7.8;;
63690;SDS011;49837;57.280;27.070;2022-07-12T05:48:13;13.1;;;7.6;;
63690;SDS011;49837;57.280;27.070;2022-07-12T05:49:14;10.9;;;7.4;;
63690;SDS011;49837;57.280;27.070;2022-07-12T05:50:14;13.5;;;7.2;;
63690;SDS011;49837;57.280;27.070;2022-07-12T05:51:15;10.8;;;6.9;;
63690;SDS011;49837;57.280;27.070;2022-07-12T05:52:15;10.1;;;7.0;;
63690;SDS011;49837;57.280;27.070;2022-07-12T05:53:15;10.6;;;7.7;;
63690;SDS011;49837;57.280;27.070;2022-07-12T05:54:16;13.5;;;7.6;;
63690;SDS011;49837;57.280;27.070;2022-07-12T05:55:16;11.8;;;7.4;;
63690;SDS011;49837;57.280;27.070;2022-07-12T05:56:17;10.7;;;7.4;;
63690;SDS011;49837;57.280;27.070;2022-07-12T05:57:17;11.7;;;7.2;;
63690;SDS011;49837;57.280;27.070;2022-07-12T05:58:17;15.4;;;7.0;;
63690;SDS011;49837;57.280;27.070;2022-07-12T05:59:18;12.9;;;7.4;;
63690;SDS011;49837;57.280;27.070;2022-07-12T06:00:18;12.4;;;7.7;;
63690;SDS011;49837;57.280;27.070;2022-07-12T06:01:19;10.8;;;6.9;;
63690;SDS011;49837;57.280;27.070;2022-07-12T06:02:19;10.4;;;7.6;;
63690;SDS011;49837;57.280;27.070;2022-07-12T06:03:20;9.9;;;7.3;;
63690;SDS011;49837;57.280;27.070;2022-07-12T06:04:20;13.8;;;8.3;;
63690;SDS011;49837;57.280;27.070;2022-07-12T06:05:20;10.7;;;7.4;;
63690;SDS011;49837;57.280;27.070;2022-07-12T06:06:21;11.0;;;7.7;;
63690;SDS011;49837;57.280;27.070;2022-07-12T06:07:21;12.2;;;8.0;;
63690;SDS011;49837;57.280;27.070;2022-07-12T06:08:22;12.9;;;7.2;;